This is the latest recevied weather packets stored in our database for station/object Kisslegg. If no packets are shown the sender has not sent any weather packets the latest 10 day(s).
| Time | Temp. | Humidity | Pressure | Rain* | Wind** | Luminosity | Snow |
|---|---|---|---|---|---|---|---|
| 1787752930 | 27.22° C | 57% | 1014.5 hPa | 0.51 mm | - | - | - |
| 1787751131 | 26.11° C | 58% | 1014.8 hPa | 0.51 mm | - | - | - |
| 1787749330 | 26.67° C | 57% | 1015 hPa | 0.51 mm | - | - | - |
| 1787747530 | 26.11° C | 59% | 1015.2 hPa | 0.51 mm | - | - | - |
| 1787745730 | 25.56° C | 64% | 1015.2 hPa | 0.51 mm | - | - | - |
| 1787743931 | 25° C | 68% | 1015.3 hPa | 0.51 mm | - | - | - |
| 1787742134 | 25° C | 69% | 1015.6 hPa | 0.51 mm | - | - | - |
| 1787740330 | 24.44° C | 72% | 1015.8 hPa | 0.51 mm | - | - | - |
| 1787738530 | 23.33° C | 72% | 1016.1 hPa | 0.51 mm | - | - | - |
| 1787736730 | 22.22° C | 76% | 1016.4 hPa | 0.25 mm | - | - | - |
| 1787734930 | 20.56° C | 82% | 1016.5 hPa | 0.25 mm | - | - | - |
| 1787733130 | 18.33° C | 92% | 1016.5 hPa | 0.25 mm | - | - | - |
| 1787731330 | 17.22° C | 93% | 1016.4 hPa | 0.25 mm | - | - | - |
| 1787729531 | 16.67° C | 94% | 1016.3 hPa | 0.25 mm | - | - | - |
| 1787727730 | 16.67° C | 93% | 1016.1 hPa | 0.25 mm | - | - | - |
| 1787725929 | 16.67° C | 91% | 1016.3 hPa | 0.25 mm | - | - | - |
| 1787724130 | 16.67° C | 91% | 1016.2 hPa | 0.25 mm | - | - | - |
| 1787722330 | 16.11° C | 91% | 1015.6 hPa | 0.25 mm | - | - | - |
| 1787720529 | 16.11° C | 92% | 1015.5 hPa | 0.25 mm | - | - | - |
| 1787718729 | 16.11° C | 92% | 1015.4 hPa | 0.25 mm | - | - | - |
| 1787716929 | 16.11° C | 92% | 1015.2 hPa | 0.25 mm | - | - | - |
| 1787715130 | 16.11° C | 93% | 1015.2 hPa | 0 mm | - | - | - |
| 1787713330 | 16.11° C | 93% | 1015.2 hPa | 0 mm | - | - | - |
| 1787711529 | 16.11° C | 93% | 1015.2 hPa | 0 mm | - | - | - |
| 1787709729 | 16.11° C | 93% | 1015.1 hPa | 0 mm | - | - | - |
* Rain since midnight (hover to see other rain measurements)
** Current wind speed in m/s (hover to see current wind gust speed)